Tiempo atmosférico en la estación meteorológica de Coll De Nargó, Lleida (603 m.)



Fecha
DESCASC
Temp. máxima en grados centígrados (hora)
DESCASC
Temp. mínima en grados centígrados (hora)
DESCASC
Temp. media en grados centígrados
DESCASC
Racha de viento máxima en m/sg (hora)
DESCASC
Velocidad máxima media en intervalos de 10 minutos(hora)
DESCASC
Precipitaciones diarias en mm
DESCASC
Precipitaciones de 00:00 a 06:00 en mm
DESCASC
Precipitaciones de 06:00 a 12:00 en mm
DESCASC
Precipitaciones de 12:00 a 18:00 en mm
DESCASC
Precipitaciones de 18:00 a 24:00 en mm
DESCASC
20-09-2018 30.4 (14:40) 13.5 (07:20) 21.9 7.5 (15:20) 5.83 (15:20) 0 0 0 0 0
19-09-2018 28.5 (15:30) 13.7 (06:40) 21.1 9.44 (14:50) 6.67 (15:10) 0 0 0 0 0
18-09-2018 26 (16:00) 15.6 (07:40) 20.8 12.5 (14:30) 7.5 (14:50) 0 0 0 0 0
17-09-2018 27.9 (14:40) 13 (04:50) 20.4 8.61 (15:00) 6.39 (15:00) 0.2 0 0.2 0 0
16-09-2018 28.6 (15:30) 14 (00:00) 21.3 15.28 (19:50) 8.33 (19:50) 12.2 0 0 0 12.2
15-09-2018 26.3 (15:10) 16.1 (00:00) 21.2 11.39 (19:20) 7.78 (19:20) 0 0 0 0 0
14-09-2018 26.5 (16:40) 13.5 (00:00) 20 14.17 (13:10) 11.39 (13:10) 0 0 0 0 0
13-09-2018 27.6 (14:50) 13.1 (00:00) 20.4 10.56 (16:10) 7.78 (14:20) 0.2 0 0.2 0 0
12-09-2018 28.9 (15:00) 14.4 (00:00) 21.6 19.17 (20:20) 10.28 (20:20) 10.2 0 0 0 10.2
11-09-2018 29.9 (13:20) 14.1 (00:00) 22 10 (18:20) 6.11 (18:10) 0.4 0 0 0 0.4
10-09-2018 29 (14:20) 13.8 (00:00) 21.4 10 (19:40) 6.67 (20:10) 4.2 4 0 0 0.2
09-09-2018 29.4 (16:10) 16 (00:00) 22.7 12.22 (18:20) 6.94 (18:30) 0.4 0 0 0 0.4
08-09-2018 27.9 (14:50) 12.6 (00:00) 20.3 10 (17:20) 6.39 (13:20) 0 0 0 0 0
07-09-2018 26.9 (16:10) 12.1 (00:00) 19.5 9.72 (15:20) 7.22 (15:00) 0.2 0 0.2 0 0
06-09-2018 26.1 (14:40) 12.5 (00:00) 19.3 13.33 (00:20) 7.78 (14:40) 18.2 17.8 0 0 0.4
05-09-2018 28.9 (14:20) 15.4 (00:00) 22.1 13.61 (17:40) 5.28 (17:40) 16.4 0 0 16.4 0
04-09-2018 30 (15:20) 15.5 (00:00) 22.8 11.94 (18:00) 7.22 (18:40) 13.4 0 0 0.2 13.2
03-09-2018 30.5 (16:10) 16.8 (00:00) 23.6 16.11 (22:00) 9.17 (13:30) 10.4 0 0 0 10.4
02-09-2018 28.8 (16:10) 17.8 (00:00) 23.3 11.39 (22:30) 8.33 (13:00) 0 0 0 0 0
01-09-2018 28.1 (16:00) 16.4 (00:00) 22.3 11.67 (13:00) 8.89 (12:40) 0 0 0 0 0
31-08-2018 27.5 (16:20) 17.3 (00:00) 22.4 15.56 (12:30) 13.06 (12:30) 0 0 0 0 0
30-08-2018 26.8 (14:10) 14.7 (00:00) 20.7 11.94 (14:50) 8.89 (14:30) 0 0 0 0 0
29-08-2018 31 (15:30) 16.2 (00:00) 23.6 14.17 (21:10) 9.44 (21:10) 2 0 0 0 2
28-08-2018 33.1 (14:40) 14.6 (00:00) 23.8 11.67 (18:40) 7.78 (18:40) 2.6 0 0 0 2.6
27-08-2018 30.4 (16:30) 12.3 (00:00) 21.3 10.28 (16:00) 8.06 (16:00) 0 0 0 0 0
26-08-2018 25.5 (16:50) 12.1 (00:00) 18.8 13.33 (13:10) 10.56 (13:10) 0 0 0 0 0
25-08-2018 23.6 (17:40) 13.1 (00:00) 18.4 13.33 (12:00) 11.11 (12:20) 0 0 0 0 0
24-08-2018 27.7 (15:10) 14.3 (00:00) 21 12.22 (13:40) 10 (13:40) 0 0 0 0 0

Gráficas

Temp. máximas Temp. mínimas Temp. medias Precipitaciones Rachas de viento máximas Velocidades máximas media en intervalos de 10 minutos

Datos horarios

Fecha y hora oficial Temperatura (ºC) Velocidad del viento (km/h) Dirección del viento Racha (km/h) Dirección de racha Precipitación (mm) Presión (hPa) Tendencia (hPa) Humedad (%)
2018-09-22 23:00:00 18.7 4 Nordeste 6 Norte 0 -- -- 79
2018-09-22 22:00:00 20.5 2 Sudeste 9 Nordeste 0 -- -- 70
2018-09-22 21:00:00 21.9 5 Nordeste 25 Sur 0 -- -- 63
2018-09-22 20:00:00 23.9 21 Sur 32 Sur 0 -- -- 57
2018-09-22 19:00:00 25.4 26 Sur 33 Sudeste 0 -- -- 51
2018-09-22 18:00:00 27.4 26 Sur 38 Sur 0 -- -- 49
2018-09-22 17:00:00 28.1 27 Sudeste 39 Sur 0 -- -- 49
2018-09-22 16:00:00 28 29 Sur 41 Sur 0 -- -- 48
2018-09-22 15:00:00 27.2 31 Sur 45 Sur 0 -- -- 52
2018-09-22 14:00:00 25.6 39 Sur 47 Sur 0 -- -- 57
2018-09-22 13:00:00 25 32 Sur 45 Sur 0 -- -- 60
2018-09-22 12:00:00 23.6 24 Sur 32 Sur 0 -- -- 62
2018-09-22 11:00:00 23.7 3 Este 10 Norte 0 -- -- 59
2018-09-22 10:00:00 19.7 4 Norte 7 Nordeste 0 -- -- 70
2018-09-22 09:00:00 15.2 5 Norte 7 Noroeste 0 -- -- 88
2018-09-22 08:00:00 14.3 5 Norte 6 Nordeste 0 -- -- 95
2018-09-22 07:00:00 14.6 2 Norte 7 Norte 0 -- -- 93
2018-09-22 06:00:00 14.6 4 Norte 6 Norte 0 -- -- 93
2018-09-22 05:00:00 15 3 Norte 5 Norte 0 -- -- 90
2018-09-22 04:00:00 15.2 5 Norte 6 Norte 0 -- -- 86
2018-09-22 03:00:00 16 3 Norte 5 Norte 0 -- -- 81
2018-09-22 02:00:00 16.6 2 Norte 6 Norte 0 -- -- 78
2018-09-22 01:00:00 17.3 0 Calma 8 Norte 0 -- -- 71
2018-09-22 00:00:00 17.8 6 Norte 10 Norte 0 -- -- 73
2018-09-21 23:00:00 19.8 2 Nordeste 6 Nordeste 0 -- -- 65
2018-09-21 22:00:00 21.5 2 Sudeste 14 Sur 0 -- -- 59
2018-09-21 21:00:00 22.9 8 Sur 15 Sur 0 -- -- 59
2018-09-21 20:00:00 25.6 9 Sur 17 Sudoeste 0 -- -- 49
2018-09-21 19:00:00 27.3 13 Sur 24 Sur 0 -- -- 45
2018-09-21 18:00:00 29.9 4 Sur 19 Sur 0 -- -- 39
2018-09-21 17:00:00 30.8 15 Sur 30 Sur 0 -- -- 38
2018-09-21 16:00:00 31.1 20 Sudeste 32 Sudeste 0 -- -- 37
2018-09-21 15:00:00 31.3 13 Sur 39 Sur 0 -- -- 37
2018-09-21 14:00:00 30.4 12 Sur 24 Sur 0 -- -- 41
2018-09-21 13:00:00 26.8 4 Norte 9 Norte 0 -- -- 51
2018-09-21 12:00:00 25.4 5 Nordeste 9 Nordeste 0 -- -- 54
2018-09-21 11:00:00 23.4 4 Nordeste 12 Nordeste 0 -- -- 59
2018-09-21 10:00:00 20.5 6 Nordeste 13 Nordeste 0 -- -- 68
2018-09-21 09:00:00 15.2 8 Norte 14 Nordeste 0 -- -- 90
2018-09-21 08:00:00 14.3 7 Norte 12 Nordeste 0 -- -- 97
2018-09-21 07:00:00 14.9 4 Norte 10 Nordeste 0 -- -- 92
2018-09-21 06:00:00 14.8 7 Norte 9 Norte 0 -- -- 96
2018-09-21 05:00:00 15.2 5 Norte 10 Norte 0 -- -- 93
2018-09-21 04:00:00 15.3 5 Norte 9 Norte 0 -- -- 95
2018-09-21 03:00:00 15.6 6 Norte 8 Nordeste 0 -- -- 94
2018-09-21 02:00:00 16.8 5 Norte 8 Norte 0 -- -- 90
2018-09-21 01:00:00 16.8 5 Norte 5 Norte 0 -- -- 91
2018-09-21 00:00:00 18.1 3 Norte 5 Nordeste 0 -- -- 84
2018-09-20 23:00:00 19 4 Nordeste 8 Nordeste 0 -- -- 80
2018-09-20 22:00:00 21 2 Nordeste 12 Sudeste 0 -- -- 69
2018-09-20 21:00:00 21.6 4 Norte 8 Nordeste 0 -- -- 69
2018-09-20 20:00:00 24.2 3 Nordeste 16 Sur 0 -- -- 57
2018-09-20 19:00:00 25.5 10 Sur 24 Sur 0 -- -- 52
2018-09-20 18:00:00 28.9 14 Sur 23 Sudeste 0 -- -- 42
2018-09-20 17:00:00 29.8 17 Sur 25 Sudeste 0 -- -- 41
2018-09-20 16:00:00 30.2 19 Sur 27 Sur 0 -- -- 41
2018-09-20 15:00:00 30 20 Sur 24 Sur 0 -- -- 41
2018-09-20 14:00:00 29.3 4 Este 8 Sudeste 0 -- -- 39
2018-09-20 13:00:00 26.2 4 Nordeste 9 Nordeste 0 -- -- 44
2018-09-20 12:00:00 23.5 4 Nordeste 13 Norte 0 -- -- 52
2018-09-20 11:00:00 21.5 4 Nordeste 12 Nordeste 0 -- -- 57
2018-09-20 10:00:00 18.9 5 Norte 11 Nordeste 0 -- -- 69
2018-09-20 09:00:00 14.2 3 Norte 5 Norte 0 -- -- 90
2018-09-20 08:00:00 13.9 3 Norte 13 Nordeste 0 -- -- 93
2018-09-20 07:00:00 14.1 5 Norte 9 Norte 0 -- -- 95
2018-09-20 06:00:00 14.3 5 Norte 12 Nordeste 0 -- -- 95
2018-09-20 05:00:00 14.7 5 Norte 10 Nordeste 0 -- -- 97
2018-09-20 04:00:00 14.7 6 Norte 9 Norte -- -- -- 98
2018-09-20 03:00:00 15.3 4 Norte 8 Nordeste 0 -- -- 97
2018-09-20 02:00:00 15.8 5 Norte 9 Norte 0 -- -- 97
2018-09-20 01:00:00 16.5 6 Norte 8 Norte 0 -- -- 93
2018-09-20 00:00:00 17.7 4 Norte 8 Nordeste 0 -- -- 88
2018-09-19 23:00:00 18.9 0 Calma 6 Nordeste 0 -- -- 81
2018-09-19 22:00:00 20.1 3 Norte 6 Nordeste 0 -- -- 74
2018-09-19 21:00:00 22.1 3 Sur 15 Sur 0 -- -- 64
2018-09-19 20:00:00 22.8 13 Sur 22 Sur 0 -- -- 63
2018-09-19 19:00:00 24.9 14 Sur 29 Sur 0 -- -- 54
2018-09-19 18:00:00 27.1 19 Sur 29 Sur 0 -- -- 49
2018-09-19 17:00:00 27.7 22 Sur 29 Sudeste 0 -- -- 48
2018-09-19 16:00:00 28.4 19 Sur 33 Sur 0 -- -- 49
2018-09-19 15:00:00 27.9 23 Sur 34 Sudeste 0 -- -- 48
2018-09-19 14:00:00 27.3 22 Sur 28 Sur 0 -- -- 53
2018-09-19 13:00:00 26.1 4 Este 9 Nordeste 0 -- -- 51
2018-09-19 12:00:00 23 5 Nordeste 10 Nordeste 0 -- -- 63
2018-09-19 11:00:00 22.9 2 Norte 15 Nordeste 0 -- -- 64
2018-09-19 10:00:00 19.3 4 Nordeste 10 Nordeste 0 -- -- 79
2018-09-19 09:00:00 14.1 5 Norte 11 Norte 0 -- -- 99
2018-09-19 08:00:00 14 3 Norte 6 Nordeste 0 -- -- 99
2018-09-19 07:00:00 13.8 6 Norte 10 Norte 0 -- -- 99
2018-09-19 06:00:00 14.2 6 Norte 9 Norte 0 -- -- 99
2018-09-19 05:00:00 14.6 6 Nordeste 9 Nordeste 0 -- -- 98
2018-09-19 04:00:00 15.5 5 Nordeste 10 Nordeste 0 -- -- 96
2018-09-19 03:00:00 16.6 6 Nordeste 7 Nordeste 0 -- -- 91
2018-09-19 02:00:00 17.6 4 Norte 12 Oeste 0 -- -- 84
2018-09-19 01:00:00 17.8 3 Nordeste 10 Nordeste 0 -- -- 82
2018-09-19 00:00:00 17.3 10 Norte 20 Nordeste 0 -- -- 90
2018-09-18 23:00:00 18.2 7 Nordeste 13 Norte 0 -- -- 87
2018-09-18 22:00:00 19.1 4 Norte 10 Noroeste 0 -- -- 83
2018-09-18 21:00:00 19.5 7 Norte 10 Norte 0 -- -- 82
2018-09-18 20:00:00 20.5 4 Norte 20 Sur 0 -- -- 77
2018-09-18 19:00:00 23.1 12 Sudeste 34 Sur 0 -- -- 65
2018-09-18 18:00:00 23.4 26 Sur 38 Sur 0 -- -- 62
2018-09-18 17:00:00 25.2 19 Sudeste 34 Sur 0 -- -- 61
2018-09-18 16:00:00 26 19 Sur 42 Sur 0 -- -- 53
2018-09-18 15:00:00 24.6 21 Sur 45 Sudoeste 0 -- -- 58
2018-09-18 14:00:00 24.5 26 Sur 38 Sudeste 0 -- -- 59
2018-09-18 13:00:00 25 2 Norte 10 Norte 0 -- -- 60
2018-09-18 12:00:00 21.5 6 Norte 10 Nordeste 0 -- -- 74
2018-09-18 11:00:00 19 5 Norte 9 Norte 0 -- -- 83
2018-09-18 10:00:00 18 4 Nordeste 6 Norte 0 -- -- 91
2018-09-18 09:00:00 15.9 4 Nordeste 10 Nordeste 0 -- -- 99
2018-09-18 08:00:00 15.7 0 Calma 5 Nordeste 0 -- -- 99
2018-09-18 07:00:00 15.8 3 Norte 6 Norte 0 -- -- 99
2018-09-18 06:00:00 15.7 4 Norte 7 Norte 0 -- -- 99
2018-09-18 05:00:00 15.9 4 Nordeste 8 Nordeste 0 -- -- 99
2018-09-18 04:00:00 15.8 6 Norte 8 Norte 0 -- -- 99
2018-09-18 03:00:00 16.4 3 Norte 6 Norte 0 -- -- 97
2018-09-18 02:00:00 16.6 5 Nordeste 6 Nordeste 0 -- -- 97
2018-09-18 01:00:00 17.1 3 Norte 6 Nordeste 0 -- -- 94
2018-09-18 00:00:00 17.9 3 Nordeste 9 Este 0 -- -- 90
2018-09-17 23:00:00 19.7 3 Sudeste 17 Sur 0 -- -- 84
2018-09-17 22:00:00 21.6 13 Sur 22 Sur 0 -- -- 77
2018-09-17 21:00:00 22.2 14 Sur 27 Sur 0 -- -- 73
2018-09-17 20:00:00 23.3 17 Sudeste 30 Sur 0 -- -- 66
2018-09-17 19:00:00 24.9 14 Sur 28 Sur 0 -- -- 60
2018-09-17 18:00:00 27.4 13 Sur 22 Sur 0 -- -- 47
2018-09-17 17:00:00 27.5 17 Sur 28 Sur 0 -- -- 47
2018-09-17 16:00:00 25.7 22 Sur 29 Sur 0 -- -- 50
2018-09-17 15:00:00 25.9 23 Sur 31 Sudeste 0 -- -- 47
2018-09-17 14:00:00 25.6 3 Sudeste 8 Nordeste 0 -- -- 55
2018-09-17 13:00:00 22.5 5 Norte 12 Norte 0 -- -- 65
2018-09-17 12:00:00 19.8 6 Nordeste 10 Nordeste 0 -- -- 77
2018-09-17 11:00:00 18.5 9 Norte 13 Este 0 -- -- 82
2018-09-17 10:00:00 15.9 6 Norte 10 Nordeste 0 -- -- 99
2018-09-17 09:00:00 13.6 6 Nordeste 8 Nordeste 0 -- -- 100
2018-09-17 08:00:00 13.4 5 Norte 8 Norte 0.2 -- -- 100
2018-09-17 07:00:00 13.3 4 Norte 7 Norte 0 -- -- 100
2018-09-17 06:00:00 13.4 3 Norte 8 Norte 0 -- -- 100
2018-09-17 05:00:00 13.2 6 Norte 11 Nordeste 0 -- -- 100
2018-09-17 04:00:00 13.2 7 Norte 10 Nordeste 0 -- -- 100
2018-09-17 03:00:00 13.6 6 Norte 11 Norte 0 -- -- 100
2018-09-17 02:00:00 13.6 6 Norte 10 Nordeste 0 -- -- 100
2018-09-17 01:00:00 14 7 Norte 11 Norte 0 -- -- 100
2018-09-17 00:00:00 14.1 8 Nordeste 13 Norte 0 -- -- 100
2018-09-16 23:00:00 14.2 9 Norte 20 Norte 0.2 -- -- 99
2018-09-16 22:00:00 14.5 7 Nordeste 12 Nordeste 0 -- -- 99
2018-09-16 21:00:00 14.1 4 Noroeste 23 Norte 6.8 -- -- 99
2018-09-16 20:00:00 16.1 12 Este 55 Norte 5.2 -- -- 94
2018-09-16 19:00:00 25.3 15 Sur 26 Sudeste 0 -- -- 56
2018-09-16 18:00:00 27.9 15 Sur 28 Sur 0 -- -- 49
2018-09-16 17:00:00 28.3 20 Sur 30 Sur 0 -- -- 49
2018-09-16 16:00:00 28.3 22 Sur 32 Sur 0 -- -- 50
2018-09-16 15:00:00 28.2 24 Sur 34 Sur 0 -- -- 52
2018-09-16 14:00:00 27.3 26 Sur 34 Sur 0 -- -- 55
2018-09-16 13:00:00 26.4 23 Sur 30 Sur 0 -- -- 59
2018-09-16 12:00:00 25.3 8 Sur 16 Sudoeste 0 -- -- 61
2018-09-16 11:00:00 23.2 4 Nordeste 7 Nordeste 0 -- -- 69
2018-09-16 10:00:00 19 2 Noroeste 9 Norte 0 -- -- 87
2018-09-16 09:00:00 16.7 0 Calma 8 Nordeste 0 -- -- 94
2018-09-16 08:00:00 16 4 Norte 9 Nordeste 0 -- -- 94
2018-09-16 07:00:00 16.3 3 Nordeste 8 Noroeste 0 -- -- 94
2018-09-16 06:00:00 16.3 7 Norte 12 Norte 0 -- -- 93
2018-09-16 05:00:00 17.3 2 Sur 9 Oeste 0 -- -- 94
2018-09-16 04:00:00 17.4 5 Norte 6 Norte 0 -- -- 92
2018-09-16 03:00:00 17.3 5 Norte 18 Sur 0 -- -- 93
2018-09-16 02:00:00 18.5 15 Sur 22 Sur 0 -- -- 88
2018-09-16 01:00:00 18.6 17 Sur 33 Sur 0 -- -- 87
2018-09-16 00:00:00 19.1 27 Sur 34 Sur 0 -- -- 86
2018-09-15 23:00:00 19.5 0 Calma 19 Sur 0 -- -- 83
2018-09-15 22:00:00 19.9 18 Sur 30 Sur 0 -- -- 82
2018-09-15 21:00:00 20.4 17 Sudeste 30 Sudeste 0 -- -- 79
2018-09-15 20:00:00 20.7 20 Sudeste 41 Sur 0 -- -- 78
2018-09-15 19:00:00 21.9 25 Sur 36 Sur 0 -- -- 74
2018-09-15 18:00:00 23.8 19 Sudeste 37 Sudeste 0 -- -- 65
2018-09-15 17:00:00 24.7 23 Sur 32 Sur 0 -- -- 61
2018-09-15 16:00:00 26 21 Sudeste 32 Sur 0 -- -- 60
2018-09-15 15:00:00 25.6 24 Sudeste 32 Sur 0 -- -- 61
2018-09-15 14:00:00 25.4 21 Sur 31 Sur 0 -- -- 62
2018-09-15 13:00:00 24.6 26 Sur 32 Sur 0 -- -- 65
2018-09-15 12:00:00 23.5 23 Sur 28 Sur 0 -- -- 68
2018-09-15 11:00:00 21.8 4 Nordeste 8 Norte 0 -- -- 72
2018-09-15 10:00:00 18.5 2 Nordeste 7 Nordeste 0 -- -- 85
2018-09-15 09:00:00 17 3 Norte 4 Noroeste 0 -- -- 92
2018-09-15 08:00:00 16.1 0 Calma 6 Nordeste 0 -- -- 94
2018-09-15 07:00:00 16.4 4 Nordeste 6 Sudeste 0 -- -- 91
2018-09-15 06:00:00 16.9 2 Sudoeste 5 Norte 0 -- -- 89
2018-09-15 05:00:00 17.1 4 Nordeste 6 Norte 0 -- -- 89
2018-09-15 04:00:00 17.3 2 Nordeste 5 Norte 0 -- -- 85
2018-09-15 03:00:00 17.7 2 Noroeste 9 Norte 0 -- -- 81
2018-09-15 02:00:00 17.3 4 Norte 9 Norte 0 -- -- 87
2018-09-15 01:00:00 17.9 5 Sur 9 Sur 0 -- -- 81
2018-09-15 00:00:00 18.9 4 Sur 8 Sudoeste 0 -- -- 75
2018-09-14 23:00:00 19.1 5 Sur 8 Sur 0 -- -- 75
2018-09-14 22:00:00 20 5 Nordeste 16 Sur 0 -- -- 71
2018-09-14 21:00:00 21.1 15 Sur 22 Sur 0 -- -- 63
2018-09-14 20:00:00 22.4 15 Sur 28 Sur 0 -- -- 59
2018-09-14 19:00:00 24 18 Sur 32 Sur 0 -- -- 53
2018-09-14 18:00:00 25.5 22 Sur 36 Sur 0 -- -- 52
2018-09-14 17:00:00 26.4 28 Sur 40 Sur 0 -- -- 52
2018-09-14 16:00:00 26.2 30 Sur 43 Sur 0 -- -- 53
2018-09-14 15:00:00 25 34 Sur 46 Sur 0 -- -- 57
2018-09-14 14:00:00 25.1 36 Sur 51 Sur 0 -- -- 58
2018-09-14 13:00:00 24.1 39 Sur 49 Sur 0 -- -- 61
2018-09-14 12:00:00 23.8 23 Sur 30 Sur 0 -- -- 65
2018-09-14 11:00:00 22 5 Sur 9 Sur 0 -- -- 65
2018-09-14 10:00:00 18.4 5 Norte 8 Norte 0 -- -- 84
2018-09-14 09:00:00 13.6 6 Norte 7 Norte 0 -- -- 100
2018-09-14 08:00:00 13.8 2 Noroeste 5 Norte 0 -- -- 100
2018-09-14 07:00:00 13.7 6 Norte 8 Norte 0 -- -- 100
2018-09-14 06:00:00 13.9 4 Norte 8 Norte 0 -- -- 100
2018-09-14 05:00:00 14.5 3 Norte 8 Nordeste 0 -- -- 100
2018-09-14 04:00:00 14.7 3 Norte 8 Norte 0 -- -- 99
2018-09-14 03:00:00 15 6 Norte 8 Norte 0 -- -- 97
2018-09-14 02:00:00 15.6 6 Norte 8 Norte 0 -- -- 96
2018-09-14 01:00:00 16.5 5 Norte 6 Norte 0 -- -- 92
2018-09-14 00:00:00 17.3 3 Nordeste 5 Nordeste 0 -- -- 87
2018-09-13 23:00:00 18.4 3 Nordeste 7 Nordeste 0 -- -- 81
2018-09-13 22:00:00 20.2 5 Nordeste 24 Sur 0 -- -- 73
2018-09-13 21:00:00 22.1 18 Sur 23 Sur 0 -- -- 64
2018-09-13 20:00:00 23.2 16 Sur 27 Sur 0 -- -- 62
2018-09-13 19:00:00 25 20 Sur 34 Sur 0 -- -- 58
2018-09-13 18:00:00 26.3 26 Sudeste 38 Sudeste 0 -- -- 57
2018-09-13 17:00:00 27 25 Sur 38 Sur 0 -- -- 56
2018-09-13 16:00:00 27.4 27 Sur 37 Sur 0 -- -- 56
2018-09-13 15:00:00 27.5 26 Sur 36 Sur 0 -- -- 54
2018-09-13 14:00:00 26.5 26 Sur 34 Sur 0 -- -- 56
2018-09-13 13:00:00 25.9 9 Sur 15 Sudeste 0 -- -- 53
2018-09-13 12:00:00 24.7 0 Calma 6 Norte 0 -- -- 57
2018-09-13 11:00:00 20.6 3 Norte 8 Norte 0 -- -- 70
2018-09-13 10:00:00 17.3 6 Norte 10 Norte 0.2 -- -- 85
2018-09-13 09:00:00 13.4 6 Norte 10 Norte 0 -- -- 100
2018-09-13 08:00:00 13.4 6 Norte 9 Norte 0 -- -- 100
2018-09-13 07:00:00 13.3 4 Norte 13 Nordeste 0 -- -- 100
2018-09-13 06:00:00 13.5 3 Norte 10 Norte 0 -- -- 100
2018-09-13 05:00:00 13.6 9 Norte 13 Nordeste 0 -- -- 100
2018-09-13 04:00:00 13.8 10 Norte 18 Norte 0 -- -- 100
2018-09-13 03:00:00 14.4 7 Norte 14 Norte 0 -- -- 100
2018-09-13 02:00:00 14.6 8 Nordeste 13 Norte 0 -- -- 100
2018-09-13 01:00:00 15.2 9 Nordeste 18 Norte 0 -- -- 100
2018-09-13 00:00:00 15.6 9 Nordeste 15 Oeste 0.2 -- -- 99
2018-09-12 23:00:00 15.8 4 Norte 13 Norte 0 -- -- 99
2018-09-12 22:00:00 16.1 6 Nordeste 25 Noroeste 2.4 -- -- 99
2018-09-12 21:00:00 16.6 6 Norte 69 Sur 7.6 -- -- 95
2018-09-12 20:00:00 22.8 11 Sur 45 Sur 0 -- -- 65
2018-09-12 19:00:00 25.9 13 Sudeste 22 Sudeste 0 -- -- 51
2018-09-12 18:00:00 27.1 14 Sur 23 Sur 0 -- -- 47
2018-09-12 17:00:00 27.1 12 Sudoeste 23 Sur 0 -- -- 47
2018-09-12 16:00:00 28.3 17 Sur 33 Sudeste 0 -- -- 44
2018-09-12 15:00:00 28.9 18 Sur 28 Sur 0 -- -- 46
2018-09-12 14:00:00 28.3 19 Sur 26 Sur 0 -- -- 47
2018-09-12 13:00:00 27.7 6 Sur 13 Sur 0 -- -- 47
2018-09-12 12:00:00 24.4 6 Nordeste 10 Norte 0 -- -- 55
2018-09-12 11:00:00 22.2 4 Este 8 Nordeste 0 -- -- 69
2018-09-12 10:00:00 17.9 3 Norte 8 Norte 0 -- -- 82
2018-09-12 09:00:00 15.9 5 Norte 9 Norte 0 -- -- 90
2018-09-12 08:00:00 14.8 5 Norte 8 Norte 0 -- -- 97
2018-09-12 07:00:00 14.7 4 Norte 10 Norte 0 -- -- 97
2018-09-12 06:00:00 14.6 6 Norte 8 Nordeste 0 -- -- 97
2018-09-12 05:00:00 15.3 3 Norte 7 Norte 0 -- -- 94
2018-09-12 04:00:00 15.4 8 Norte 9 Norte 0 -- -- 96
2018-09-12 03:00:00 16.2 6 Nordeste 10 Nordeste 0 -- -- 93
2018-09-12 02:00:00 16.5 6 Nordeste 11 Nordeste 0 -- -- 92
2018-09-12 01:00:00 17.5 9 Nordeste 15 Oeste 0 -- -- 88
2018-09-12 00:00:00 17.3 13 Norte 19 Noroeste 0.4 -- -- 89
2018-09-11 23:00:00 20.8 9 Sur 18 Sudeste 0 -- -- 68
2018-09-11 22:00:00 21.9 13 Sur 27 Sudeste 0 -- -- 63
2018-09-11 21:00:00 23.3 13 Sur 28 Sur 0 -- -- 55
2018-09-11 20:00:00 25 17 Sudeste 24 Sudeste 0 -- -- 50
2018-09-11 19:00:00 25.8 10 Sur 36 Este 0 -- -- 47
2018-09-11 18:00:00 26.7 17 Sur 30 Sudeste 0 -- -- 45
2018-09-11 17:00:00 27.9 14 Sur 27 Sur 0 -- -- 40
2018-09-11 16:00:00 29.4 12 Sur 28 Sur 0 -- -- 39
2018-09-11 15:00:00 28.8 14 Sur 31 Sur 0 -- -- 41
2018-09-11 14:00:00 28.4 12 Sur 26 Sur 0 -- -- 41
2018-09-11 13:00:00 28.6 3 Este 8 Nordeste 0 -- -- 40
2018-09-11 12:00:00 24.6 5 Nordeste 10 Nordeste 0 -- -- 50
2018-09-11 11:00:00 21.5 5 Norte 9 Norte 0 -- -- 61
2018-09-11 10:00:00 19.3 5 Norte 9 Nordeste 0 -- -- 70
2018-09-11 09:00:00 14.8 4 Norte 6 Norte 0 -- -- 91
2018-09-11 08:00:00 14.2 6 Norte 12 Norte 0 -- -- 94
2018-09-11 07:00:00 14.9 3 Norte 9 Norte 0 -- -- 92
2018-09-11 06:00:00 15.1 3 Norte 10 Norte 0 -- -- 92
2018-09-11 05:00:00 14.7 4 Norte 8 Nordeste 0 -- -- 98
2018-09-11 04:00:00 15 4 Nordeste 5 Nordeste 0 -- -- 97
2018-09-11 03:00:00 15.7 5 Nordeste 8 Norte 0 -- -- 94
2018-09-11 02:00:00 15.6 4 Norte 10 Norte 0 -- -- 96
2018-09-11 01:00:00 16.1 6 Nordeste 9 Norte 0 -- -- 96
2018-09-11 00:00:00 16.3 8 Norte 10 Norte 0 -- -- 95
2018-09-10 23:00:00 17.6 4 Nordeste 8 Norte 0 -- -- 91
2018-09-10 22:00:00 18.6 3 Norte 12 Sur 0 -- -- 88
2018-09-10 21:00:00 20.1 8 Sur 34 Sur 0 -- -- 80
2018-09-10 20:00:00 20.3 20 Sudeste 36 Sur 0.2 -- -- 79
2018-09-10 19:00:00 23.7 7 Oeste 19 Sur 0 -- -- 64
2018-09-10 18:00:00 23.6 18 Sur 33 Sur 0 -- -- 64
2018-09-10 17:00:00 25.3 23 Sur 30 Sur 0 -- -- 56
2018-09-10 16:00:00 27.3 17 Sur 25 Sur 0 -- -- 49
2018-09-10 15:00:00 27.6 5 Sudeste 11 Este 0 -- -- 48
2018-09-10 14:00:00 27.9 4 Nordeste 10 Nordeste 0 -- -- 54
2018-09-10 13:00:00 25.1 6 Nordeste 10 Nordeste 0 -- -- 56
2018-09-10 12:00:00 22.3 4 Nordeste 10 Nordeste 0 -- -- 66
2018-09-10 11:00:00 19.3 3 Nordeste 10 Norte 0 -- -- 82
2018-09-10 10:00:00 16.2 6 Norte 9 Norte 0 -- -- 98
2018-09-10 09:00:00 14.5 3 Norte 9 Nordeste 0 -- -- 100
2018-09-10 08:00:00 14.2 5 Nordeste 13 Norte 0 -- -- 100
2018-09-10 07:00:00 14.2 6 Nordeste 10 Nordeste 0 -- -- 100
2018-09-10 06:00:00 14.5 6 Nordeste 10 Nordeste 0 -- -- 100
2018-09-10 05:00:00 15.2 6 Norte 8 Norte 0 -- -- 100
2018-09-10 04:00:00 15.9 4 Nordeste 13 Norte 0.2 -- -- 99
2018-09-10 03:00:00 16.3 5 Norte 12 Nordeste 0 -- -- 98
2018-09-10 02:00:00 16.7 3 Norte 12 Norte 0 -- -- 98
2018-09-10 01:00:00 17.1 7 Norte 11 Noroeste 3.8 -- -- 97
2018-09-10 00:00:00 17.7 4 Este 13 Norte 0.4 -- -- 96
2018-09-09 23:00:00 18.2 2 Norte 8 Sudoeste 0 -- -- 89
2018-09-09 22:00:00 18.6 4 Oeste 12 Norte 0 -- -- 89
2018-09-09 21:00:00 20.5 4 Sudeste 24 Sur 0 -- -- 80
2018-09-09 20:00:00 21.2 4 Sudoeste 35 Sur 0 -- -- 77
2018-09-09 19:00:00 22.3 22 Sur 44 Sur 0 -- -- 77
2018-09-09 18:00:00 25.4 18 Sur 32 Sur 0 -- -- 48
2018-09-09 17:00:00 26.9 17 Sudeste 30 Sur 0 -- -- 45
2018-09-09 16:00:00 29.1 18 Sur 32 Sudeste 0 -- -- 38
2018-09-09 15:00:00 28.8 21 Sur 31 Sur 0 -- -- 43
2018-09-09 14:00:00 27.8 20 Sur 27 Sur 0 -- -- 40
2018-09-09 13:00:00 27.8 15 Sudeste 21 Sur 0 -- -- 50
2018-09-09 12:00:00 24.5 4 Nordeste 8 Nordeste 0 -- -- 61
2018-09-09 11:00:00 22.9 5 Nordeste 8 Nordeste 0 -- -- 65
2018-09-09 10:00:00 20.4 3 Nordeste 6 Noroeste 0 -- -- 77
2018-09-09 09:00:00 16.8 3 Norte 7 Noroeste 0 -- -- 94
2018-09-09 08:00:00 16.1 3 Norte 7 Norte 0 -- -- 97
2018-09-09 07:00:00 16.2 5 Nordeste 7 Norte 0 -- -- 96
2018-09-09 06:00:00 16.3 5 Norte 8 Norte 0 -- -- 94
2018-09-09 05:00:00 16.4 3 Norte 7 Norte 0 -- -- 95
2018-09-09 04:00:00 16.6 4 Nordeste 5 Norte 0 -- -- 95
2018-09-09 03:00:00 16.9 3 Norte 6 Norte 0 -- -- 94
2018-09-09 02:00:00 16.9 4 Norte 8 Norte 0 -- -- 93
2018-09-09 01:00:00 17 6 Norte 8 Norte 0 -- -- 94
2018-09-09 00:00:00 17.7 3 Noroeste 9 Norte 0 -- -- 89
2018-09-08 23:00:00 19.7 3 Sur 19 Sur 0 -- -- 83
2018-09-08 22:00:00 19.9 6 Sur 14 Sur 0 -- -- 79
2018-09-08 21:00:00 21.6 0 Calma 11 Sur 0 -- -- 70
2018-09-08 20:00:00 22.5 8 Sur 21 Sur 0 -- -- 67
2018-09-08 19:00:00 23.7 15 Sur 34 Sur 0 -- -- 63
2018-09-08 18:00:00 25.4 22 Sur 36 Sur 0 -- -- 57
2018-09-08 17:00:00 26.2 6 Sudoeste 15 Sur 0 -- -- 49
2018-09-08 16:00:00 25.7 13 Sur 32 Sur 0 -- -- 48
2018-09-08 15:00:00 27.9 20 Sur 33 Sur 0 -- -- 47
2018-09-08 14:00:00 27.1 22 Sur 32 Sur 0 -- -- 50
2018-09-08 13:00:00 25.7 21 Sur 27 Sur 0 -- -- 55
2018-09-08 12:00:00 24.6 4 Sudeste 9 Sur 0 -- -- 57
2018-09-08 11:00:00 21.3 6 Norte 9 Nordeste 0 -- -- 65
2018-09-08 10:00:00 20 4 Nordeste 6 Nordeste 0 -- -- 73
2018-09-08 09:00:00 13.3 4 Norte 7 Norte 0 -- -- 99
2018-09-08 08:00:00 12.7 6 Norte 9 Nordeste 0 -- -- 100
2018-09-08 07:00:00 13.1 5 Norte 8 Nordeste 0 -- -- 99
2018-09-08 06:00:00 13.4 6 Norte 9 Norte 0 -- -- 99
2018-09-08 05:00:00 13.8 5 Norte 9 Norte 0 -- -- 97
2018-09-08 04:00:00 13.9 7 Norte 8 Norte 0 -- -- 96
2018-09-08 03:00:00 14.6 4 Norte 6 Norte 0 -- -- 93
2018-09-08 02:00:00 15.4 3 Norte 5 Nordeste 0 -- -- 90
2018-09-08 01:00:00 16 4 Nordeste 9 Nordeste 0 -- -- 86
2018-09-08 00:00:00 17.8 3 Este 23 Sur 0 -- -- 79
2018-09-07 23:00:00 19.3 14 Sur 32 Sudeste 0 -- -- 73
2018-09-07 22:00:00 19.7 18 Sudeste 32 Sur 0 -- -- 72
2018-09-07 21:00:00 20.1 4 Sur 14 Sur 0 -- -- 65
2018-09-07 20:00:00 20.8 12 Sur 20 Sudoeste 0 -- -- 65
2018-09-07 19:00:00 23.8 13 Sur 25 Sudeste 0 -- -- 52
2018-09-07 18:00:00 25.2 15 Sur 33 Sur 0 -- -- 48
2018-09-07 17:00:00 26.4 19 Sudeste 30 Sudeste 0 -- -- 47
2018-09-07 16:00:00 26.8 22 Sudeste 35 Sur 0 -- -- 48
2018-09-07 15:00:00 26.1 26 Sur 33 Sur 0 -- -- 51
2018-09-07 14:00:00 25.5 22 Sur 29 Sur 0 -- -- 54
2018-09-07 13:00:00 24.4 19 Sur 25 Sur 0 -- -- 58
2018-09-07 12:00:00 22.7 4 Sur 10 Sudeste 0 -- -- 56
2018-09-07 11:00:00 20.6 3 Nordeste 12 Nordeste 0 -- -- 64
2018-09-07 10:00:00 17.8 7 Nordeste 15 Norte 0.2 -- -- 75
2018-09-07 09:00:00 13.3 2 Nordeste 16 Nordeste 0 -- -- 93
2018-09-07 08:00:00 12.1 6 Norte 12 Norte 0 -- -- 98
2018-09-07 07:00:00 12.2 4 Norte 10 Norte 0 -- -- 99
2018-09-07 06:00:00 12.5 4 Norte 6 Nordeste 0 -- -- 98
2018-09-07 05:00:00 13 0 Calma 11 Nordeste 0 -- -- 98
2018-09-07 04:00:00 12.6 2 Nordeste 10 Nordeste 0 -- -- 99
2018-09-07 03:00:00 12.9 4 Norte 8 Norte 0 -- -- 99
2018-09-07 02:00:00 12.7 6 Nordeste 9 Nordeste 0 -- -- 98
2018-09-07 01:00:00 12.9 5 Norte 9 Nordeste 0 -- -- 98
2018-09-07 00:00:00 13.4 4 Nordeste 8 Nordeste 0 -- -- 96
2018-09-06 23:00:00 14.2 3 Nordeste 10 Nordeste 0 -- -- 93
2018-09-06 22:00:00 14.7 3 Norte 10 Nordeste 0 -- -- 93
2018-09-06 21:00:00 15.2 4 Norte 13 Nordeste 0 -- -- 92
2018-09-06 20:00:00 17 3 Norte 27 Noroeste 0.2 -- -- 81
2018-09-06 19:00:00 19.5 19 Norte 45 Nordeste 0.2 -- -- 70
2018-09-06 18:00:00 24.7 17 Sur 28 Sur 0 -- -- 51
2018-09-06 17:00:00 25.2 18 Sur 25 Sudeste 0 -- -- 53
2018-09-06 16:00:00 22.7 17 Sur 39 Sur 0 -- -- 61
2018-09-06 15:00:00 25.7 23 Sudeste 41 Sudeste 0 -- -- 57
2018-09-06 14:00:00 25 22 Sur 33 Sudeste 0 -- -- 58
2018-09-06 13:00:00 24.6 5 Sudeste 12 Sudeste 0 -- -- 56
2018-09-06 12:00:00 21.3 6 Nordeste 12 Norte 0 -- -- 67
2018-09-06 11:00:00 19.1 5 Nordeste 9 Norte 0 -- -- 74
2018-09-06 10:00:00 16.8 2 Nordeste 6 Nordeste 0 -- -- 94
2018-09-06 09:00:00 13.3 2 Noroeste 9 Norte 0 -- -- 100
2018-09-06 08:00:00 13.2 3 Norte 8 Norte 0 -- -- 100
2018-09-06 07:00:00 13 7 Norte 10 Nordeste 0 -- -- 100
2018-09-06 06:00:00 13.4 8 Nordeste 11 Nordeste 0 -- -- 100
2018-09-06 05:00:00 13.4 4 Nordeste 11 Oeste 0 -- -- 100
2018-09-06 04:00:00 13.3 6 Nordeste 22 Norte 0.2 -- -- 100
2018-09-06 03:00:00 13.4 9 Norte 15 Noroeste 0 -- -- 100
2018-09-06 02:00:00 13.8 7 Norte 18 Nordeste 0.4 -- -- 100
2018-09-06 01:00:00 13.8 9 Noroeste 48 Sudoeste 17.2 -- -- 100
2018-09-06 00:00:00 17.7 15 Nordeste 24 Nordeste 0 -- -- 88
2018-09-05 23:00:00 18.3 3 Noroeste 8 Nordeste 0 -- -- 91
2018-09-05 22:00:00 18.4 3 Sudeste 6 Este 0 -- -- 92
2018-09-05 21:00:00 18.2 2 Norte 9 Nordeste 0 -- -- 96
2018-09-05 20:00:00 18.6 4 Norte 5 Norte 0 -- -- 88
2018-09-05 19:00:00 18.7 7 Norte 23 Norte 0 -- -- 95
2018-09-05 18:00:00 18.7 7 Este 49 Sur 16.2 -- -- 92
2018-09-05 17:00:00 26.8 6 Sudeste 18 Sur 0 -- -- 48
2018-09-05 16:00:00 26.8 6 Sudoeste 23 Sur 0 -- -- 48
2018-09-05 15:00:00 28.8 8 Sudoeste 23 Sur 0 -- -- 43
2018-09-05 14:00:00 28.8 13 Sur 20 Sur 0 -- -- 45
2018-09-05 13:00:00 26.3 5 Nordeste 9 Nordeste 0.2 -- -- 55
2018-09-05 12:00:00 24.1 5 Nordeste 13 Norte 0 -- -- 59
2018-09-05 11:00:00 22.2 9 Nordeste 18 Nordeste 0 -- -- 68
2018-09-05 10:00:00 19.8 3 Nordeste 10 Nordeste 0 -- -- 79
2018-09-05 09:00:00 16.5 4 Nordeste 9 Norte 0 -- -- 94
2018-09-05 08:00:00 15.6 4 Norte 12 Norte 0 -- -- 94
2018-09-05 07:00:00 15.7 8 Nordeste 21 Norte 0 -- -- 95
2018-09-05 06:00:00 16 7 Norte 25 Norte 0 -- -- 96
2018-09-05 05:00:00 16.2 14 Norte 20 Norte 0 -- -- 98
2018-09-05 04:00:00 16.1 3 Norte 8 Norte 0 -- -- 99
2018-09-05 03:00:00 15.8 3 Noroeste 9 Norte 0 -- -- 99
2018-09-05 02:00:00 16.1 3 Este 6 Nordeste 0 -- -- 99
2018-09-05 01:00:00 16.5 3 Norte 7 Norte 0 -- -- 98
2018-09-05 00:00:00 16.7 3 Nordeste 7 Nordeste 0 -- -- 95
2018-09-04 23:00:00 16.8 7 Nordeste 10 Nordeste 0.2 -- -- 96
2018-09-04 22:00:00 18.7 3 Nordeste 36 Sudoeste 13 -- -- 97
2018-09-04 21:00:00 22.5 15 Sur 32 Sur 0 -- -- 79
2018-09-04 20:00:00 23.4 16 Sudeste 37 Sur 0 -- -- 69
2018-09-04 19:00:00 24.8 23 Sur 42 Sur 0 -- -- 59
2018-09-04 18:00:00 25.1 23 Sur 43 Sudeste 0.2 -- -- 60
2018-09-04 17:00:00 29.5 19 Sur 31 Sur 0 -- -- 40
2018-09-04 16:00:00 29.1 19 Sur 29 Sur 0 -- -- 44
2018-09-04 15:00:00 29.7 23 Sur 30 Sur 0 -- -- 40
2018-09-04 14:00:00 28.6 20 Sur 33 Sur 0 -- -- 49
2018-09-04 13:00:00 27.3 8 Sudeste 13 Sur 0 -- -- 56
2018-09-04 12:00:00 25 4 Nordeste 10 Norte 0 -- -- 53
2018-09-04 11:00:00 22.8 5 Nordeste 10 Norte 0 -- -- 61
2018-09-04 10:00:00 21.1 5 Nordeste 13 Nordeste 0 -- -- 70
2018-09-04 09:00:00 16.1 5 Nordeste 10 Nordeste 0 -- -- 91
2018-09-04 08:00:00 16.1 3 Norte 9 Norte 0 -- -- 90
2018-09-04 07:00:00 16 5 Norte 8 Norte 0 -- -- 91
2018-09-04 06:00:00 16.5 4 Nordeste 15 Norte 0 -- -- 87
2018-09-04 05:00:00 16.5 8 Norte 13 Norte 0 -- -- 89
2018-09-04 04:00:00 17 2 Este 15 Nordeste 0 -- -- 80
2018-09-04 03:00:00 17.3 7 Norte 19 Norte 0 -- -- 80
2018-09-04 02:00:00 18.1 14 Norte 37 Nordeste 0 -- -- 79
2018-09-04 01:00:00 19.5 3 Norte 10 Norte 0 -- -- 97
2018-09-04 00:00:00 19.9 7 Norte 23 Sur 0.2 -- -- 94
2018-09-03 23:00:00 20.4 12 Sur 37 Sur 1.6 -- -- 89
2018-09-03 22:00:00 19.8 24 Sudeste 58 Sudeste 8.6 -- -- 95
2018-09-03 21:00:00 23.5 23 Sur 41 Sur 0 -- -- 73
2018-09-03 20:00:00 24 28 Sur 42 Sur 0 -- -- 72
2018-09-03 19:00:00 25.5 30 Sur 46 Sudeste 0 -- -- 67
2018-09-03 18:00:00 29.3 17 Sur 35 Sur 0 -- -- 46
2018-09-03 17:00:00 29 26 Sur 38 Sur 0 -- -- 48
2018-09-03 16:00:00 29.7 19 Sur 41 Sur 0 -- -- 50
2018-09-03 15:00:00 29.4 30 Sur 43 Sur 0 -- -- 51
2018-09-03 14:00:00 29.3 31 Sur 45 Sur 0 -- -- 49
2018-09-03 13:00:00 28.6 26 Sur 33 Sur 0 -- -- 52
2018-09-03 12:00:00 27.7 15 Sur 22 Sur 0 -- -- 56
2018-09-03 11:00:00 25.7 5 Sudeste 14 Sudeste 0 -- -- 61
2018-09-03 10:00:00 22.3 5 Norte 9 Nordeste 0 -- -- 73
2018-09-03 09:00:00 17.8 5 Norte 6 Nordeste 0 -- -- 94
2018-09-03 08:00:00 16.8 5 Nordeste 6 Nordeste 0 -- -- 96
2018-09-03 07:00:00 17.4 4 Nordeste 6 Nordeste 0 -- -- 93
2018-09-03 06:00:00 18.3 5 Norte 13 Sudeste 0 -- -- 90
2018-09-03 05:00:00 20.4 9 Sudeste 22 Sur 0 -- -- 83
2018-09-03 04:00:00 20.4 14 Sur 33 Sur 0 -- -- 84
2018-09-03 03:00:00 20.6 19 Sur 29 Sur 0 -- -- 84
2018-09-03 02:00:00 20.8 16 Sur 30 Sur 0 -- -- 84
2018-09-03 01:00:00 21.1 19 Sur 30 Sur 0 -- -- 82
2018-09-03 00:00:00 21.1 22 Sur 40 Sur 0 -- -- 82
2018-09-02 23:00:00 21.9 24 Sur 41 Sudeste 0 -- -- 76
2018-09-02 22:00:00 22.7 20 Sur 28 Sudeste 0 -- -- 68
2018-09-02 21:00:00 23.5 7 Sur 18 Sur 0 -- -- 56
2018-09-02 20:00:00 25.1 14 Sudeste 28 Sudeste 0 -- -- 51
2018-09-02 19:00:00 26.8 18 Sur 31 Sudeste 0 -- -- 47
2018-09-02 18:00:00 28.1 21 Sur 31 Sur 0 -- -- 45
2018-09-02 17:00:00 28.6 25 Sur 35 Sur 0 -- -- 44
2018-09-02 16:00:00 28.5 24 Sur 35 Sur 0 -- -- 45
2018-09-02 15:00:00 27.6 25 Sudeste 34 Sur 0 -- -- 50
2018-09-02 14:00:00 27.3 26 Sudeste 36 Sur 0 -- -- 52
2018-09-02 13:00:00 25.6 30 Sur 39 Sur 0 -- -- 59
2018-09-02 12:00:00 25.3 25 Sur 33 Sur 0 -- -- 62
2018-09-02 11:00:00 24.5 21 Sur 26 Sur 0 -- -- 63
2018-09-02 10:00:00 22.9 3 Norte 12 Nordeste 0 -- -- 53
2018-09-02 09:00:00 18.3 6 Norte 13 Nordeste 0 -- -- 63
2018-09-02 08:00:00 17.8 3 Norte 10 Norte 0 -- -- 63
2018-09-02 07:00:00 18.2 6 Norte 11 Nordeste 0 -- -- 66
2018-09-02 06:00:00 18.8 4 Norte 15 Sur 0 -- -- 81
2018-09-02 05:00:00 19.2 11 Sur 25 Sur 0 -- -- 87
2018-09-02 04:00:00 19.3 19 Sur 26 Sur 0 -- -- 88
2018-09-02 03:00:00 19.4 20 Sur 27 Sudeste 0 -- -- 89
2018-09-02 02:00:00 19.2 19 Sur 34 Sur 0 -- -- 90
2018-09-02 01:00:00 19.4 21 Sur 32 Sur 0 -- -- 88
2018-09-02 00:00:00 20.3 22 Sur 35 Sur 0 -- -- 82
2018-09-01 23:00:00 21.1 21 Sur 35 Sur 0 -- -- 78
2018-09-01 22:00:00 21.7 26 Sur 39 Sur 0 -- -- 75
2018-09-01 21:00:00 23.1 24 Sur 33 Sur 0 -- -- 69
2018-09-01 20:00:00 24.6 12 Sur 31 Sudeste 0 -- -- 53
2018-09-01 19:00:00 25.6 20 Sur 33 Sur 0 -- -- 52
2018-09-01 18:00:00 26 20 Sudeste 38 Sur 0 -- -- 53
2018-09-01 17:00:00 27.4 26 Sur 35 Sur 0 -- -- 48
2018-09-01 16:00:00 28.1 25 Sur 39 Sur 0 -- -- 48
2018-09-01 15:00:00 27.5 28 Sur 38 Sur 0 -- -- 50
2018-09-01 14:00:00 26.9 26 Sur 41 Sur 0 -- -- 54
2018-09-01 13:00:00 25.7 30 Sur 42 Sur 0 -- -- 57
2018-09-01 12:00:00 24.4 31 Sur 38 Sur 0 -- -- 63
2018-09-01 11:00:00 23.4 15 Sur 19 Sur 0 -- -- 68
2018-09-01 10:00:00 22.6 2 Nordeste 10 Nordeste 0 -- -- 64
2018-09-01 09:00:00 18.1 9 Norte 12 Norte 0 -- -- 79
2018-09-01 08:00:00 16.9 4 Norte 6 Nordeste 0 -- -- 93
2018-09-01 07:00:00 16.8 2 Norte 7 Norte 0 -- -- 93
2018-09-01 06:00:00 16.8 4 Nordeste 7 Norte 0 -- -- 95
2018-09-01 05:00:00 17.8 4 Nordeste 7 Sur 0 -- -- 90
2018-09-01 04:00:00 18.6 7 Sudeste 22 Sur 0 -- -- 87
2018-09-01 03:00:00 19.4 18 Sur 28 Sur 0 -- -- 85
2018-09-01 02:00:00 19.6 22 Sur 30 Sur 0 -- -- 83
2018-09-01 01:00:00 19.9 26 Sur 34 Sur 0 -- -- 82
2018-09-01 00:00:00 20.6 24 Sur 40 Sudeste 0 -- -- 81
2018-08-31 23:00:00 21.3 21 Sur 32 Sur 0 -- -- 76
2018-08-31 22:00:00 21.5 5 Sudoeste 13 Sur 0 -- -- 59
2018-08-31 21:00:00 22.3 11 Sur 23 Sur 0 -- -- 55
2018-08-31 20:00:00 23.3 16 Sur 26 Sudeste 0 -- -- 50
2018-08-31 19:00:00 25 19 Sur 30 Sur 0 -- -- 45
2018-08-31 18:00:00 25.2 17 Sur 38 Sudeste 0 -- -- 48
2018-08-31 17:00:00 26.9 24 Sudeste 40 Sudeste 0 -- -- 46
2018-08-31 16:00:00 27.2 26 Sudeste 39 Sur 0 -- -- 48
2018-08-31 15:00:00 26.3 28 Sur 47 Sur 0 -- -- 54
2018-08-31 14:00:00 24.8 35 Sur 46 Sur 0 -- -- 57
2018-08-31 13:00:00 23 38 Sur 56 Sur 0 -- -- 60
2018-08-31 12:00:00 22.2 43 Sur 51 Sur 0 -- -- 72
2018-08-31 11:00:00 21.5 39 Sur 50 Sur 0 -- -- 78
2018-08-31 10:00:00 20.6 3 Nordeste 7 Norte 0 -- -- 80
2018-08-31 09:00:00 19.1 3 Norte 6 Nordeste 0 -- -- 90
2018-08-31 08:00:00 17.5 3 Norte 5 Nordeste 0 -- -- 96
2018-08-31 07:00:00 17.7 0 Calma 5 Norte 0 -- -- 94
2018-08-31 06:00:00 17.4 5 Norte 8 Norte 0 -- -- 95
2018-08-31 05:00:00 18 0 Calma 6 Norte 0 -- -- 93
2018-08-31 04:00:00 18.3 3 Norte 8 Norte 0 -- -- 92
2018-08-31 03:00:00 19.5 3 Sudoeste 7 Sur 0 -- -- 89
2018-08-31 02:00:00 19.6 4 Este 20 Sur 0 -- -- 85
2018-08-31 01:00:00 20.4 12 Sur 23 Sur 0 -- -- 84
2018-08-31 00:00:00 19.6 10 Sudeste 20 Sudeste 0 -- -- 80
2018-08-30 23:00:00 19.9 7 Sudeste 13 Sur 0 -- -- 79
2018-08-30 22:00:00 21 4 Este 13 Sudoeste 0 -- -- 73
2018-08-30 21:00:00 23.3 10 Sur 21 Sur 0 -- -- 60
2018-08-30 20:00:00 24.9 10 Sur 27 Sur 0 -- -- 55
2018-08-30 19:00:00 25.6 11 Sur 32 Sur 0 -- -- 52
2018-08-30 18:00:00 25.9 20 Sudeste 37 Sudeste 0 -- -- 53
2018-08-30 17:00:00 25.9 28 Sur 39 Sur 0 -- -- 55
2018-08-30 16:00:00 25.5 27 Sur 41 Sur 0 -- -- 60
2018-08-30 15:00:00 24.4 29 Sur 43 Sur 0 -- -- 65
2018-08-30 14:00:00 25.9 27 Sudeste 36 Sur 0 -- -- 63
2018-08-30 13:00:00 25.1 25 Sur 34 Sur 0 -- -- 66
2018-08-30 12:00:00 23.8 3 Este 10 Nordeste 0 -- -- 62
2018-08-30 11:00:00 21.5 4 Nordeste 9 Nordeste 0 -- -- 68
2018-08-30 10:00:00 19.4 5 Nordeste 9 Nordeste 0 -- -- 81
2018-08-30 09:00:00 16.1 4 Nordeste 10 Nordeste 0 -- -- 96
2018-08-30 08:00:00 14.9 4 Norte 8 Nordeste 0 -- -- 99
2018-08-30 07:00:00 14.8 2 Norte 7 Norte 0 -- -- 99
2018-08-30 06:00:00 15.3 3 Nordeste 8 Nordeste 0 -- -- 99
2018-08-30 05:00:00 15.4 6 Nordeste 10 Nordeste 0 -- -- 98
2018-08-30 04:00:00 16.2 3 Norte 10 Nordeste 0 -- -- 96
2018-08-30 03:00:00 16.5 9 Norte 17 Norte 0 -- -- 96
2018-08-30 02:00:00 17.3 3 Sudeste 20 Norte 0 -- -- 94
2018-08-30 01:00:00 17.3 8 Norte 12 Norte 0 -- -- 97
2018-08-30 00:00:00 17.4 6 Norte 9 Nordeste 1 -- -- 96
2018-08-29 23:00:00 18.3 4 Noroeste 28 Sur 1 -- -- 88
2018-08-29 22:00:00 22.6 21 Sur 51 Sur 0 -- -- 64
2018-08-29 21:00:00 24.3 22 Sudeste 34 Sudeste 0 -- -- 66
2018-08-29 20:00:00 26.1 8 Sur 28 Sur 0 -- -- 48
2018-08-29 19:00:00 27.5 15 Sur 32 Sudeste 0 -- -- 45
2018-08-29 18:00:00 29.3 17 Sur 35 Sur 0 -- -- 42
2018-08-29 17:00:00 30.2 17 Sur 36 Sur 0 -- -- 38
2018-08-29 16:00:00 30.7 19 Sur 32 Sur 0 -- -- 37
2018-08-29 15:00:00 30.7 19 Sur 33 Sur 0 -- -- 37
2018-08-29 14:00:00 30.1 23 Sur 32 Sur 0 -- -- 39
2018-08-29 13:00:00 29.4 15 Sudeste 21 Sudeste 0 -- -- 46
2018-08-29 12:00:00 25.8 4 Nordeste 13 Nordeste 0 -- -- 51
2018-08-29 11:00:00 23.6 5 Nordeste 14 Nordeste 0 -- -- 61
2018-08-29 10:00:00 21.5 6 Nordeste 14 Nordeste 0 -- -- 68
2018-08-29 09:00:00 17.5 4 Nordeste 10 Norte 0 -- -- 85
2018-08-29 08:00:00 16.6 5 Norte 14 Nordeste 0 -- -- 87
2018-08-29 07:00:00 16.7 3 Nordeste 17 Norte 0 -- -- 86
2018-08-29 06:00:00 16.6 6 Norte 15 Nordeste 0 -- -- 90
2018-08-29 05:00:00 16.8 6 Norte 16 Norte 0 -- -- 88
2018-08-29 04:00:00 16.4 6 Norte 10 Norte 0 -- -- 93
2018-08-29 03:00:00 17.1 7 Norte 21 Oeste 0 -- -- 90
2018-08-29 02:00:00 17.1 12 Noroeste 22 Norte 0 -- -- 90
2018-08-29 01:00:00 17.9 11 Norte 35 Norte 0 -- -- 86
2018-08-29 00:00:00 17.6 21 Norte 34 Norte 1.2 -- -- 87
2018-08-28 23:00:00 20.4 12 Sur 36 Sudoeste 1.4 -- -- 70
2018-08-28 22:00:00 24.8 8 Nordeste 20 Sudeste 0 -- -- 57
2018-08-28 21:00:00 24.9 5 Sudeste 10 Sudeste 0 -- -- 66
2018-08-28 20:00:00 25.1 12 Sur 41 Sudeste 0 -- -- 65
2018-08-28 19:00:00 26.5 27 Sur 42 Sur 0 -- -- 60
2018-08-28 18:00:00 30.3 18 Sur 31 Sur 0 -- -- 45
2018-08-28 17:00:00 31.4 18 Sur 33 Sudeste 0 -- -- 41
2018-08-28 16:00:00 33.1 26 Sur 39 Sur 0 -- -- 37
2018-08-28 15:00:00 33 23 Sur 30 Sur 0 -- -- 41
2018-08-28 14:00:00 32.1 10 Sudeste 21 Sur 0 -- -- 42
2018-08-28 13:00:00 29.8 9 Sur 20 Sur 0 -- -- 44
2018-08-28 12:00:00 26.6 6 Nordeste 9 Nordeste 0 -- -- 53
2018-08-28 11:00:00 24.1 5 Nordeste 10 Norte 0 -- -- 60
2018-08-28 10:00:00 22.1 3 Nordeste 10 Nordeste 0 -- -- 66
2018-08-28 09:00:00 16.4 4 Norte 9 Norte 0 -- -- 92
2018-08-28 08:00:00 15.1 5 Norte 10 Norte 0 -- -- 97
2018-08-28 07:00:00 14.8 5 Norte 9 Norte 0 -- -- 97
2018-08-28 06:00:00 15.1 6 Norte 8 Norte 0 -- -- 96
2018-08-28 05:00:00 15.6 5 Norte 9 Norte 0 -- -- 94
2018-08-28 04:00:00 16.1 5 Norte 6 Norte 0 -- -- 91
2018-08-28 03:00:00 17.2 3 Nordeste 7 Norte 0 -- -- 85
2018-08-28 02:00:00 17.8 2 Nordeste 8 Norte 0 -- -- 81
2018-08-28 01:00:00 19.1 0 Calma 5 Norte 0 -- -- 77
2018-08-28 00:00:00 20 3 Nordeste 5 Norte 0 -- -- 75
2018-08-27 23:00:00 21.4 3 Sur 5 Sudoeste 0 -- -- 65
2018-08-27 22:00:00 23.2 3 Este 12 Sur 0 -- -- 60
2018-08-27 21:00:00 25.3 5 Sur 22 Sur 0 -- -- 53
2018-08-27 20:00:00 26.4 19 Sur 28 Sur 0 -- -- 51
2018-08-27 19:00:00 28.5 21 Sudeste 34 Sur 0 -- -- 45
2018-08-27 18:00:00 29.6 24 Sur 34 Sudeste 0 -- -- 42
2018-08-27 17:00:00 30.1 26 Sur 36 Sur 0 -- -- 41
2018-08-27 16:00:00 30 29 Sur 37 Sur 0 -- -- 41
2018-08-27 15:00:00 29.8 26 Sur 36 Sur 0 -- -- 42
2018-08-27 14:00:00 28.8 26 Sur 33 Sur 0 -- -- 44
2018-08-27 13:00:00 28.2 23 Sur 30 Sur 0 -- -- 46
2018-08-27 12:00:00 26.5 4 Nordeste 9 Norte 0 -- -- 45
2018-08-27 11:00:00 22.4 6 Nordeste 13 Nordeste 0 -- -- 57
2018-08-27 10:00:00 20.2 4 Nordeste 10 Nordeste 0 -- -- 64
2018-08-27 09:00:00 14.3 4 Norte 8 Norte 0 -- -- 90
2018-08-27 08:00:00 13.4 3 Norte 6 Noroeste 0 -- -- 90
2018-08-27 07:00:00 12.4 4 Norte 9 Norte 0 -- -- 95
2018-08-27 06:00:00 13.1 5 Norte 9 Noroeste 0 -- -- 93
2018-08-27 05:00:00 12.8 8 Norte 12 Norte 0 -- -- 95
2018-08-27 04:00:00 13.6 3 Norte 8 Norte 0 -- -- 93
2018-08-27 03:00:00 14.1 2 Norte 6 Norte 0 -- -- 87
2018-08-27 02:00:00 14.4 3 Norte 6 Norte 0 -- -- 88
2018-08-27 01:00:00 14.9 5 Norte 8 Norte 0 -- -- 87
2018-08-27 00:00:00 16.6 0 Calma 6 Norte 0 -- -- 76
2018-08-26 23:00:00 17.9 2 Nordeste 9 Sur 0 -- -- 70
2018-08-26 22:00:00 19.5 2 Sur 16 Sudeste 0 -- -- 62
2018-08-26 21:00:00 21.1 15 Sur 34 Sur 0 -- -- 54
2018-08-26 20:00:00 21.9 28 Sur 37 Sur 0 -- -- 54
2018-08-26 19:00:00 23.8 28 Sur 37 Sur 0 -- -- 48
2018-08-26 18:00:00 24.9 28 Sur 40 Sur 0 -- -- 45
2018-08-26 17:00:00 25.3 29 Sur 41 Sudeste 0 -- -- 45
2018-08-26 16:00:00 25.3 28 Sur 39 Sur 0 -- -- 44
2018-08-26 15:00:00 24.4 29 Sur 44 Sur 0 -- -- 46
2018-08-26 14:00:00 23.4 32 Sur 48 Sur 0 -- -- 48
2018-08-26 13:00:00 21.8 37 Sur 47 Sur 0 -- -- 53
2018-08-26 12:00:00 20.8 27 Sur 38 Sur 0 -- -- 56
2018-08-26 11:00:00 18.9 27 Sur 35 Sur 0 -- -- 60
2018-08-26 10:00:00 18.2 12 Sudeste 24 Sur 0 -- -- 62
2018-08-26 09:00:00 13.3 0 Calma 4 Norte 0 -- -- 86
2018-08-26 08:00:00 12.5 2 Sur 3 Sur 0 -- -- 88
2018-08-26 07:00:00 12.5 2 Nordeste 11 Sur 0 -- -- 86
2018-08-26 06:00:00 13.3 2 Este 22 Sur 0 -- -- 83
2018-08-26 05:00:00 14.6 10 Sudeste 28 Sur 0 -- -- 80
2018-08-26 04:00:00 16 23 Sur 31 Sur 0 -- -- 76
2018-08-26 03:00:00 17.1 19 Sur 34 Sudeste 0 -- -- 81
2018-08-26 02:00:00 18 15 Sur 30 Sur 0 -- -- 80
2018-08-26 01:00:00 18.8 12 Sur 27 Sur 0 -- -- 81
2018-08-26 00:00:00 19.6 15 Sudoeste 27 Sur 0 -- -- 67
2018-08-25 23:00:00 20.2 8 Sur 23 Sur 0 -- -- 63
2018-08-25 22:00:00 20.8 10 Sur 24 Sudeste 0 -- -- 60
2018-08-25 21:00:00 21.2 17 Sur 31 Sur 0 -- -- 58
2018-08-25 20:00:00 21.7 24 Sur 36 Sur 0 -- -- 57
2018-08-25 19:00:00 22.7 26 Sudeste 38 Sur 0 -- -- 56
2018-08-25 18:00:00 22.4 28 Sur 38 Sur 0 -- -- 57
2018-08-25 17:00:00 22.4 30 Sur 43 Sur 0 -- -- 56
2018-08-25 16:00:00 23.2 33 Sur 46 Sur 0 -- -- 53
2018-08-25 15:00:00 22.7 34 Sur 48 Sur 0 -- -- 55
2018-08-25 14:00:00 23.5 31 Sur 45 Sur 0 -- -- 54
2018-08-25 13:00:00 22.2 35 Sur 48 Sur 0 -- -- 58
2018-08-25 12:00:00 19.4 38 Sur 48 Sur 0 -- -- 66
2018-08-25 11:00:00 19.2 29 Sur 38 Sur 0 -- -- 66
2018-08-25 10:00:00 18.7 10 Sur 15 Sur 0 -- -- 69
2018-08-25 09:00:00 14.6 5 Norte 6 Norte 0 -- -- 92
2018-08-25 08:00:00 13.1 4 Norte 6 Nordeste 0 -- -- 94
2018-08-25 07:00:00 13.7 3 Sudeste 18 Sur 0 -- -- 89
2018-08-25 06:00:00 14.5 2 Norte 23 Sur 0 -- -- 88
2018-08-25 05:00:00 15.9 10 Sur 27 Sudeste 0 -- -- 79
2018-08-25 04:00:00 16.6 15 Sur 26 Sur 0 -- -- 72
2018-08-25 03:00:00 17.4 12 Sur 29 Sudeste 0 -- -- 73
2018-08-25 02:00:00 18.3 13 Sudeste 24 Sudeste 0 -- -- 74
2018-08-25 01:00:00 18.1 4 Norte 21 Sudeste 0 -- -- 76
2018-08-25 00:00:00 18.4 4 Sudeste 14 Sur 0 -- -- 80
2018-08-24 23:00:00 19.8 3 Sudeste 6 Nordeste 0 -- -- 69
2018-08-24 22:00:00 20.3 2 Norte 8 Nordeste 0 -- -- 67
2018-08-24 21:00:00 22.8 2 Norte 13 Sur 0 -- -- 58
2018-08-24 20:00:00 24.6 9 Sur 22 Sudeste 0 -- -- 51
2018-08-24 19:00:00 26.3 18 Sur 30 Sur 0 -- -- 48
2018-08-24 18:00:00 26.4 20 Sur 35 Sur 0 -- -- 53
2018-08-24 17:00:00 27.3 25 Sur 39 Sur 0 -- -- 53
2018-08-24 16:00:00 27.5 29 Sur 41 Sur 0 -- -- 54
2018-08-24 15:00:00 27.5 30 Sur 43 Sur 0 -- -- 56
2018-08-24 14:00:00 26.4 33 Sur 44 Sur 0 -- -- 57
2018-08-24 13:00:00 26.1 25 Sur 33 Sur 0 -- -- 61
2018-08-24 12:00:00 27.1 6 Sudeste 11 Sudeste 0 -- -- 45
2018-08-24 11:00:00 23.1 8 Nordeste 12 Nordeste 0 -- -- 57
2018-08-24 10:00:00 20.8 6 Nordeste 13 Norte 0 -- -- 67
2018-08-24 09:00:00 16.7 5 Nordeste 9 Nordeste 0 -- -- 87
2018-08-24 08:00:00 14.4 4 Norte 5 Norte 0 -- -- 97
2018-08-24 07:00:00 14.6 3 Norte 6 Norte 0 -- -- 94
2018-08-24 06:00:00 14.5 5 Norte 9 Nordeste 0 -- -- 97
2018-08-24 05:00:00 15.2 4 Nordeste 9 Nordeste 0 -- -- 94
2018-08-24 04:00:00 15.5 6 Nordeste 10 Norte 0 -- -- 93
2018-08-24 03:00:00 16.5 3 Norte 8 Nordeste 0 -- -- 90
2018-08-24 02:00:00 16.5 4 Norte 13 Nordeste 0 -- -- 91
2018-08-24 01:00:00 17.7 5 Norte 8 Nordeste 0 -- -- 84
2018-08-24 00:00:00 18.4 3 Norte 14 Norte 0 -- -- 82